createdAt,value
2022-12-11T02:29:42.569Z,17.97
2022-12-11T02:32:17.960Z,17.07
2022-12-11T02:34:57.374Z,21.00
2022-12-11T02:37:32.481Z,16.77
2022-12-11T05:02:49.832Z,12.10
2022-12-11T05:05:18.147Z,10.87
2022-12-11T05:07:46.249Z,10.60
2022-12-11T05:10:14.290Z,10.87
2022-12-11T05:12:42.410Z,10.60
2022-12-11T05:15:11.673Z,12.50
2022-12-11T05:17:39.946Z,10.57
2022-12-11T05:20:10.605Z,11.80
2022-12-11T05:22:39.409Z,12.90
2022-12-11T05:25:08.933Z,11.93
2022-12-11T05:27:37.298Z,9.77
2022-12-11T05:30:06.415Z,12.07
2022-12-11T05:32:34.452Z,12.47
2022-12-11T05:35:03.757Z,11.10
2022-12-11T05:37:34.412Z,10.43
2022-12-11T05:40:02.960Z,10.20
2022-12-11T05:42:30.981Z,10.80
2022-12-11T05:44:59.055Z,10.40
2022-12-11T05:47:27.158Z,11.67
2022-12-11T05:49:55.255Z,12.83
2022-12-11T05:52:23.382Z,10.20
2022-12-11T05:54:52.871Z,11.10
2022-12-11T05:57:20.928Z,11.30
2022-12-11T05:59:49.031Z,11.03
2022-12-11T06:02:17.215Z,9.50
2022-12-11T06:04:45.390Z,10.33
2022-12-11T06:07:13.522Z,10.80
2022-12-11T06:09:41.679Z,10.70
2022-12-11T06:12:11.174Z,10.90
2022-12-11T06:14:39.235Z,10.50
2022-12-11T06:17:07.421Z,9.80
2022-12-11T06:19:37.177Z,10.50
2022-12-11T06:22:05.851Z,10.23
2022-12-11T06:24:33.945Z,10.90
2022-12-11T06:27:02.015Z,9.83
2022-12-11T06:29:31.500Z,10.50
2022-12-11T06:31:59.525Z,9.43
2022-12-11T06:34:27.675Z,9.57
2022-12-11T06:36:55.785Z,8.90
2022-12-11T06:39:23.941Z,9.83
2022-12-11T06:41:52.210Z,9.40
2022-12-11T06:44:20.276Z,8.90
2022-12-11T06:46:49.615Z,10.10
2022-12-11T06:49:17.775Z,11.23
2022-12-11T06:51:45.890Z,9.40
2022-12-11T06:54:13.972Z,10.17
2022-12-11T06:56:42.078Z,9.50
2022-12-11T06:59:12.980Z,11.17
2022-12-11T07:01:41.838Z,8.80
2022-12-11T07:04:11.285Z,10.10
2022-12-11T07:06:39.478Z,10.20
2022-12-11T07:09:08.204Z,9.10
2022-12-11T07:11:36.277Z,9.90
2022-12-11T07:14:04.401Z,8.97
2022-12-11T07:16:32.600Z,10.10
2022-12-11T07:19:00.737Z,11.13
2022-12-11T07:21:30.310Z,9.57
2022-12-11T07:23:58.688Z,11.27
2022-12-11T07:26:26.905Z,11.30
2022-12-11T07:28:58.514Z,12.67
2022-12-11T07:31:27.784Z,12.43
2022-12-11T07:33:56.695Z,11.00
2022-12-11T07:36:25.456Z,11.97
2022-12-11T07:38:55.452Z,11.60
2022-12-11T07:41:24.521Z,13.07
2022-12-11T07:43:55.609Z,11.77
2022-12-11T07:46:25.618Z,11.47
2022-12-11T07:48:54.323Z,11.50
2022-12-11T07:51:26.636Z,12.13
2022-12-11T07:53:58.204Z,12.47
2022-12-11T07:56:27.177Z,15.30
2022-12-11T07:58:55.301Z,16.33
2022-12-11T08:01:26.066Z,22.07
2022-12-11T08:03:55.563Z,15.40
2022-12-11T08:06:27.955Z,17.93
2022-12-11T08:08:58.524Z,20.43
2022-12-11T08:11:27.343Z,16.73
2022-12-11T08:13:55.830Z,17.37
2022-12-11T08:16:24.436Z,13.53
2022-12-11T08:18:52.937Z,18.93
2022-12-11T08:21:23.035Z,15.67
2022-12-11T08:23:52.551Z,16.70
2022-12-11T08:26:27.835Z,16.03
2022-12-11T08:28:56.196Z,13.13
2022-12-11T08:31:24.816Z,14.70
2022-12-11T08:33:53.961Z,14.47
2022-12-11T08:36:23.875Z,15.20
2022-12-11T08:38:52.497Z,14.37
2022-12-11T08:41:24.031Z,15.57
2022-12-11T08:43:54.892Z,14.00
2022-12-11T08:46:24.999Z,15.00
2022-12-11T08:48:53.531Z,14.87
2022-12-11T08:51:25.107Z,13.63
2022-12-11T08:53:55.943Z,14.43
2022-12-11T08:56:25.889Z,14.03
2022-12-11T08:58:54.735Z,15.80
2022-12-11T09:01:25.759Z,15.80
2022-12-11T09:03:55.396Z,13.67
2022-12-11T09:06:25.677Z,12.93
2022-12-11T09:08:54.741Z,15.73
2022-12-11T09:11:26.142Z,14.90
2022-12-11T09:13:54.474Z,15.57
2022-12-11T09:16:24.116Z,15.07
2022-12-11T09:18:54.553Z,14.50
2022-12-11T09:21:24.644Z,13.80
2022-12-11T09:23:55.368Z,14.87
2022-12-11T09:26:25.813Z,13.87
2022-12-11T09:28:54.862Z,14.10
2022-12-11T09:31:26.411Z,12.90
2022-12-11T09:33:57.601Z,16.20
2022-12-11T09:36:26.515Z,13.93
2022-12-11T09:38:54.754Z,12.67
2022-12-11T09:41:38.688Z,13.57
2022-12-11T09:44:17.464Z,14.80
2022-12-11T09:46:46.218Z,15.93
2022-12-11T09:49:23.943Z,13.83
2022-12-11T09:51:59.235Z,17.30
2022-12-11T09:54:28.022Z,15.53
2022-12-11T09:57:10.162Z,14.40
2022-12-11T09:59:49.341Z,14.20
2022-12-11T10:02:28.417Z,14.57
2022-12-11T10:05:07.289Z,12.60
2022-12-11T10:07:44.449Z,13.27
2022-12-11T10:10:19.792Z,14.90
2022-12-11T10:12:56.108Z,11.90
2022-12-11T10:15:40.406Z,12.43
2022-12-11T10:18:16.135Z,12.53
2022-12-11T10:20:45.314Z,11.70
2022-12-11T10:23:19.460Z,14.70
2022-12-11T10:25:51.545Z,12.80
2022-12-11T10:28:22.303Z,13.40
2022-12-11T10:30:56.474Z,12.13
2022-12-11T10:33:31.783Z,8.87
2022-12-11T10:36:00.483Z,9.97
2022-12-11T10:38:31.289Z,10.30
2022-12-11T10:41:01.742Z,9.90
2022-12-11T10:43:39.710Z,11.83
2022-12-11T10:46:15.178Z,10.97
2022-12-11T10:48:47.676Z,10.90
2022-12-11T10:51:16.557Z,11.73
2022-12-11T10:53:45.214Z,10.10
2022-12-11T10:56:14.425Z,10.40
2022-12-11T10:58:50.962Z,9.90
2022-12-11T11:01:23.336Z,11.00
2022-12-11T11:03:58.742Z,11.60
2022-12-11T11:06:27.718Z,12.17
2022-12-11T11:08:57.709Z,13.57
2022-12-11T11:11:29.180Z,11.37
2022-12-11T11:14:15.954Z,12.10
2022-12-11T11:16:46.419Z,11.30
2022-12-11T11:19:24.583Z,11.10
2022-12-11T11:21:54.911Z,13.20
2022-12-11T11:24:28.565Z,10.47
2022-12-11T11:27:12.676Z,11.60
2022-12-11T11:29:43.532Z,12.63
2022-12-11T11:32:19.580Z,12.00
2022-12-11T11:34:47.650Z,12.53
2022-12-11T11:37:31.283Z,13.53
2022-12-11T11:40:04.338Z,14.03
2022-12-11T11:42:43.265Z,12.33
2022-12-11T11:45:17.372Z,13.47
2022-12-11T11:47:53.633Z,12.10
2022-12-11T11:50:27.036Z,12.10
2022-12-11T11:53:03.384Z,11.00
2022-12-11T11:55:42.134Z,11.50
2022-12-11T11:58:15.866Z,12.70
2022-12-11T12:00:45.328Z,12.87
2022-12-11T12:03:17.506Z,11.50
2022-12-11T12:05:54.654Z,11.80
2022-12-11T12:08:42.739Z,11.00
2022-12-11T12:11:18.170Z,8.93
2022-12-11T12:13:54.942Z,10.80
2022-12-11T12:19:44.433Z,9.00
2022-12-11T12:22:24.684Z,8.90
2022-12-11T12:25:02.069Z,10.13
2022-12-11T12:27:53.681Z,9.03
2022-12-11T12:30:23.691Z,8.50
2022-12-11T12:33:11.873Z,9.90
2022-12-11T12:35:47.389Z,10.90
2022-12-11T12:38:21.449Z,10.27
2022-12-11T12:41:00.538Z,9.40
2022-12-11T12:43:48.466Z,9.73
2022-12-11T12:46:28.463Z,11.00
2022-12-11T12:48:59.864Z,10.80
2022-12-11T12:51:28.962Z,10.20
2022-12-11T12:54:00.043Z,11.30
2022-12-11T12:56:30.185Z,12.50
2022-12-11T12:58:58.908Z,11.30
2022-12-11T13:01:29.870Z,10.70
2022-12-11T13:04:02.195Z,11.00
2022-12-11T13:06:34.079Z,10.50
2022-12-11T13:09:14.928Z,10.20
2022-12-11T13:11:43.357Z,10.27
2022-12-11T13:14:27.980Z,11.10
2022-12-11T13:17:09.520Z,9.20
2022-12-11T13:19:42.757Z,8.37
2022-12-11T13:22:23.653Z,9.37
2022-12-11T13:25:01.508Z,9.00
2022-12-11T13:27:39.234Z,8.17
2022-12-11T13:30:21.746Z,8.73
2022-12-11T13:33:01.872Z,8.67
2022-12-11T13:35:32.804Z,9.50
2022-12-11T13:38:06.930Z,8.60
2022-12-11T13:40:40.269Z,8.80
2022-12-11T13:43:18.080Z,8.50
2022-12-11T13:45:50.324Z,10.87
2022-12-11T13:48:23.517Z,9.50
2022-12-11T13:50:54.390Z,9.77
2022-12-11T13:53:22.827Z,9.40
2022-12-11T13:55:58.454Z,10.27
2022-12-11T13:58:26.994Z,9.37
2022-12-11T14:01:15.145Z,9.90
2022-12-11T14:03:49.720Z,10.03
2022-12-11T14:06:20.000Z,9.87
2022-12-11T14:08:51.438Z,9.20
2022-12-11T14:11:24.870Z,8.53
2022-12-11T14:13:52.985Z,10.10
2022-12-11T14:16:23.939Z,8.13
2022-12-11T14:18:53.394Z,8.73
2022-12-11T14:21:24.490Z,9.20
2022-12-11T14:23:54.941Z,7.37
2022-12-11T14:26:25.423Z,8.47
2022-12-11T14:28:54.252Z,8.43
2022-12-11T14:31:30.301Z,8.03
2022-12-11T14:34:03.811Z,8.07
2022-12-11T14:36:36.214Z,8.60
2022-12-11T14:39:06.503Z,8.60
2022-12-11T14:41:42.987Z,7.73
2022-12-11T14:44:16.705Z,9.90
2022-12-11T14:46:47.698Z,9.90
2022-12-11T14:49:23.011Z,8.63
2022-12-11T14:51:55.216Z,8.57
2022-12-11T14:54:30.568Z,8.93
2022-12-11T14:57:00.015Z,8.07
2022-12-11T14:59:32.176Z,8.70
2022-12-11T15:02:02.757Z,9.23
2022-12-11T15:04:33.302Z,8.80
2022-12-11T15:07:03.042Z,8.07
2022-12-11T15:09:40.663Z,8.47
2022-12-11T15:12:13.532Z,9.20
2022-12-11T15:14:48.621Z,8.70
2022-12-11T15:17:17.159Z,8.70
2022-12-11T15:19:51.360Z,8.10
2022-12-11T15:22:25.242Z,7.70
2022-12-11T15:24:55.527Z,7.57
2022-12-11T15:27:32.543Z,8.60
2022-12-11T15:30:00.793Z,8.30
2022-12-11T15:32:28.876Z,8.60
2022-12-11T15:34:58.540Z,9.93
2022-12-11T15:37:29.990Z,9.47
2022-12-11T15:40:00.208Z,8.30
2022-12-11T15:42:31.149Z,8.67
2022-12-11T15:45:00.342Z,9.03
2022-12-11T15:47:31.485Z,9.07
2022-12-11T15:50:01.907Z,9.77
2022-12-11T15:52:34.396Z,9.83
2022-12-11T15:55:02.610Z,9.27
2022-12-11T15:57:30.670Z,9.23
2022-12-11T16:00:00.299Z,9.10
2022-12-11T16:02:29.000Z,9.50
2022-12-11T16:04:57.502Z,25.23
2022-12-11T16:07:27.569Z,9.77
2022-12-11T16:09:57.259Z,11.30
2022-12-11T16:12:25.596Z,9.13
2022-12-11T16:14:53.771Z,8.40
2022-12-11T16:17:21.910Z,8.97
2022-12-11T16:19:50.074Z,8.10
2022-12-11T16:22:19.461Z,8.03
2022-12-11T16:24:49.115Z,8.90
2022-12-11T16:27:22.955Z,8.70
2022-12-11T16:29:52.074Z,9.20
2022-12-11T16:32:21.132Z,8.37
2022-12-11T16:34:49.208Z,8.60
2022-12-11T16:37:17.293Z,9.07
2022-12-11T16:39:46.846Z,8.77
2022-12-11T16:42:14.929Z,8.03
2022-12-11T16:44:44.647Z,9.60
2022-12-11T16:47:12.651Z,9.40
2022-12-11T16:49:40.809Z,10.83
2022-12-11T16:52:08.961Z,11.80
2022-12-11T16:54:37.250Z,10.60
2022-12-11T16:57:05.864Z,11.00
2022-12-11T16:59:37.477Z,10.60
2022-12-11T17:02:07.620Z,11.10
2022-12-11T17:04:35.900Z,12.07
2022-12-11T17:07:04.941Z,11.77
2022-12-11T17:09:33.196Z,12.27
2022-12-11T17:12:01.249Z,12.00
2022-12-11T17:14:29.525Z,12.33
2022-12-11T17:16:57.995Z,10.80
2022-12-11T17:19:27.660Z,11.00
2022-12-11T17:21:56.174Z,12.97
2022-12-11T17:24:24.256Z,12.07
2022-12-11T17:26:53.076Z,11.17
2022-12-11T17:29:21.952Z,11.70
2022-12-11T17:31:50.213Z,12.43
2022-12-11T17:34:18.335Z,12.97
2022-12-11T17:36:47.884Z,12.90
2022-12-11T17:39:16.572Z,12.37
2022-12-11T17:41:44.800Z,12.23
2022-12-11T17:44:12.986Z,13.30
2022-12-11T17:46:41.286Z,13.00
2022-12-11T17:49:10.518Z,12.90
2022-12-11T17:51:38.697Z,12.50
2022-12-11T17:54:08.221Z,13.50
2022-12-11T17:56:36.861Z,12.77
2022-12-11T17:59:05.549Z,14.90
2022-12-11T18:01:33.943Z,12.50
2022-12-11T18:04:02.490Z,12.43
2022-12-11T18:06:31.154Z,11.40
2022-12-11T18:08:59.452Z,12.43
2022-12-11T18:11:29.026Z,13.00
2022-12-11T18:13:57.109Z,13.33
2022-12-11T18:16:28.864Z,11.80
2022-12-11T18:18:57.485Z,12.97
2022-12-11T18:21:27.212Z,14.80
2022-12-11T18:23:56.012Z,12.93
2022-12-11T18:26:24.197Z,12.97
2022-12-11T18:28:54.097Z,12.10
2022-12-11T18:31:23.118Z,14.20
2022-12-11T18:33:51.802Z,10.13
2022-12-11T18:36:21.530Z,15.20
2022-12-11T18:38:49.980Z,11.10
2022-12-11T18:41:20.158Z,11.50
2022-12-11T18:43:48.461Z,11.67
2022-12-11T18:46:21.542Z,12.00
2022-12-11T18:48:50.524Z,13.40
2022-12-11T18:51:22.581Z,10.97
2022-12-11T18:53:51.160Z,10.93
2022-12-11T18:56:21.398Z,15.13
2022-12-11T18:58:51.725Z,14.53
2022-12-11T19:01:22.859Z,13.00
2022-12-11T19:03:53.178Z,13.00
2022-12-11T19:06:26.417Z,12.17
2022-12-11T19:08:54.508Z,12.27
2022-12-11T19:11:24.630Z,11.30
2022-12-11T19:13:54.821Z,13.00
2022-12-11T19:16:26.377Z,12.47
2022-12-11T19:18:54.520Z,13.80
2022-12-11T19:21:22.673Z,12.70
2022-12-11T19:23:51.083Z,10.67
2022-12-11T19:26:21.361Z,9.33
2022-12-11T19:28:51.231Z,12.33
2022-12-11T19:31:22.839Z,8.50
2022-12-11T19:33:52.480Z,7.23
2022-12-11T19:36:22.671Z,8.43
2022-12-11T19:38:52.018Z,7.70
2022-12-11T19:41:22.715Z,7.07
2022-12-11T19:43:51.648Z,7.40
2022-12-11T19:46:20.420Z,6.33
2022-12-11T19:48:50.556Z,7.40
2022-12-11T19:51:22.406Z,9.67
2022-12-11T19:53:51.272Z,7.50
2022-12-11T19:56:20.072Z,8.87
2022-12-11T19:58:49.814Z,7.07
2022-12-11T20:01:25.003Z,6.50
2022-12-11T20:03:53.941Z,7.17
2022-12-11T20:06:23.911Z,6.87
2022-12-11T20:08:52.067Z,7.80
2022-12-11T20:11:20.244Z,8.57
2022-12-11T20:13:48.875Z,7.77
2022-12-11T20:16:20.029Z,8.50
2022-12-11T20:18:58.320Z,12.20
2022-12-11T20:21:28.586Z,9.20
2022-12-11T20:23:56.822Z,9.17
2022-12-11T20:26:26.347Z,9.47
2022-12-11T20:28:54.502Z,8.93
2022-12-11T20:31:25.505Z,11.10
2022-12-11T20:33:56.880Z,10.40
2022-12-11T20:36:25.881Z,11.03
2022-12-11T20:38:55.407Z,10.53
2022-12-11T20:41:25.346Z,10.13
2022-12-11T20:43:54.393Z,11.43
2022-12-11T20:46:24.859Z,12.00
2022-12-11T20:48:53.533Z,11.57
2022-12-11T20:51:26.364Z,11.03
2022-12-11T20:53:59.501Z,9.53
2022-12-11T20:56:30.291Z,11.10
2022-12-11T20:58:59.716Z,10.30
2022-12-11T21:01:30.441Z,10.40
2022-12-11T21:03:59.101Z,8.70
2022-12-11T21:06:31.216Z,9.30
2022-12-11T21:09:02.818Z,10.37
2022-12-11T21:11:31.018Z,9.60
2022-12-11T21:13:59.194Z,10.37
2022-12-11T21:16:27.646Z,10.80
2022-12-11T21:18:56.160Z,9.50
2022-12-11T21:21:24.652Z,11.30
2022-12-11T21:23:53.318Z,10.07
2022-12-11T21:26:22.847Z,10.80
2022-12-11T21:28:51.103Z,11.60
2022-12-11T21:31:22.084Z,10.87
2022-12-11T21:33:50.279Z,10.73
2022-12-11T21:36:18.942Z,11.20
2022-12-11T21:38:47.682Z,12.80
2022-12-11T21:41:17.781Z,10.43
2022-12-11T21:46:37.463Z,13.00
2022-12-11T21:49:05.638Z,13.17
2022-12-11T21:51:38.558Z,12.33
2022-12-11T21:54:13.119Z,13.60
2022-12-11T21:56:41.706Z,12.23
2022-12-11T21:59:11.417Z,16.17
2022-12-11T22:01:42.031Z,14.83
2022-12-11T22:04:11.402Z,12.27
2022-12-11T22:06:40.285Z,13.67
2022-12-11T22:09:08.727Z,13.47
2022-12-11T22:11:37.077Z,15.40
2022-12-11T22:14:06.815Z,15.10
2022-12-11T22:16:36.821Z,14.57
2022-12-11T22:19:05.137Z,12.73
2022-12-11T22:21:33.198Z,13.07
2022-12-11T22:24:01.582Z,14.37
2022-12-11T22:26:29.923Z,13.90
2022-12-11T22:28:58.285Z,13.10
2022-12-11T22:31:28.177Z,14.30
2022-12-11T22:33:57.760Z,15.00
2022-12-11T22:36:27.377Z,13.57
2022-12-11T22:38:56.193Z,14.70
2022-12-11T22:41:27.934Z,15.00
2022-12-11T22:43:56.496Z,13.77
2022-12-11T22:46:27.377Z,14.27
2022-12-11T22:48:56.894Z,13.50
2022-12-11T22:51:25.075Z,14.10
2022-12-11T22:53:53.171Z,14.80
2022-12-11T22:56:21.333Z,15.30
2022-12-11T22:58:49.479Z,14.27
2022-12-11T23:01:21.451Z,13.33
2022-12-11T23:03:50.343Z,15.30
2022-12-11T23:06:22.800Z,14.17
2022-12-11T23:08:51.039Z,16.47
2022-12-11T23:11:21.794Z,13.03
2022-12-11T23:13:49.800Z,14.63
2022-12-11T23:16:18.271Z,15.83
2022-12-11T23:18:46.452Z,15.53
2022-12-11T23:21:14.623Z,17.47
2022-12-11T23:23:44.087Z,14.30
2022-12-11T23:26:14.385Z,13.27
2022-12-11T23:28:43.708Z,12.70
2022-12-11T23:31:12.232Z,14.37
2022-12-11T23:33:40.296Z,14.13
2022-12-11T23:36:09.885Z,14.33
2022-12-11T23:38:38.130Z,17.53
2022-12-11T23:41:09.434Z,13.73
2022-12-11T23:43:38.880Z,12.43
2022-12-11T23:46:11.516Z,13.23
2022-12-11T23:48:39.593Z,14.50
2022-12-11T23:51:09.493Z,14.80
2022-12-11T23:53:37.537Z,13.70
2022-12-11T23:56:10.285Z,14.77
2022-12-11T23:58:39.147Z,13.30
